createdAt,value
2022-08-05T00:00:34.615Z,99890.00
2022-08-05T00:03:15.514Z,99873.00
2022-08-05T00:06:04.909Z,99883.00
2022-08-05T00:08:34.900Z,99904.00
2022-08-05T00:11:20.679Z,99946.00
2022-08-05T00:13:57.125Z,100002.00
2022-08-05T00:16:36.522Z,100031.00
2022-08-05T00:19:12.849Z,100007.00
2022-08-05T00:21:42.537Z,99995.00
2022-08-05T00:24:11.226Z,99996.00
2022-08-05T00:26:51.759Z,99980.00
2022-08-05T00:29:25.773Z,99921.00
2022-08-05T00:32:12.723Z,99928.00
2022-08-05T00:35:04.726Z,99954.00
2022-08-05T00:37:51.376Z,99957.00
2022-08-05T00:40:28.179Z,99964.00
2022-08-05T00:43:02.530Z,99964.00
2022-08-05T00:45:42.952Z,100013.00
2022-08-05T00:48:31.426Z,100050.00
2022-08-05T00:50:59.508Z,100075.00
2022-08-05T00:54:01.242Z,100078.00
2022-08-05T00:56:23.905Z,100041.00
2022-08-05T00:58:52.277Z,100010.00
2022-08-05T01:01:42.968Z,99979.00
2022-08-05T01:04:13.878Z,99974.00
2022-08-05T01:06:42.068Z,100000.00
2022-08-05T01:09:14.386Z,99991.00
2022-08-05T01:11:48.545Z,99993.00
2022-08-05T01:14:40.608Z,99991.00
2022-08-05T01:17:22.865Z,99978.00
2022-08-05T01:20:15.919Z,99997.00
2022-08-05T01:23:44.159Z,100017.00
2022-08-05T01:26:36.192Z,100022.00
2022-08-05T01:29:25.594Z,100025.00
2022-08-05T01:32:01.500Z,100018.00
2022-08-05T01:35:10.492Z,100017.00
2022-08-05T01:37:50.872Z,100020.00
2022-08-05T01:40:29.167Z,100016.00
2022-08-05T01:42:58.246Z,100012.00
2022-08-05T01:45:28.206Z,100011.00
2022-08-05T01:48:03.480Z,100017.00
2022-08-05T01:50:41.153Z,100021.00
2022-08-05T01:53:54.657Z,100031.00
2022-08-05T01:58:18.879Z,100037.00
2022-08-05T01:59:05.484Z,100045.00
2022-08-05T02:01:40.382Z,100052.00
2022-08-05T02:04:10.493Z,100054.00
2022-08-05T02:06:39.705Z,100047.00
2022-08-05T02:09:08.573Z,100037.00
2022-08-05T02:12:02.168Z,100033.00
2022-08-05T02:14:47.064Z,100033.00
2022-08-05T02:18:30.966Z,100035.00
2022-08-05T02:20:26.430Z,100037.00
2022-08-05T02:23:02.083Z,100038.00
2022-08-05T02:25:50.264Z,100035.00
2022-08-05T02:28:32.137Z,100034.00
2022-08-05T02:31:16.802Z,100042.00
2022-08-05T02:33:57.794Z,100047.00
2022-08-05T02:36:27.916Z,100049.00
2022-08-05T02:39:02.454Z,100058.00
2022-08-05T02:41:37.550Z,100070.00
2022-08-05T02:44:24.976Z,100097.00
2022-08-05T02:47:00.322Z,100112.00
2022-08-05T02:49:35.956Z,100104.00
2022-08-05T02:52:08.004Z,100124.00
2022-08-05T02:54:41.193Z,100111.00
2022-08-05T02:58:11.377Z,100055.00
2022-08-05T03:00:05.042Z,100010.00
2022-08-05T03:02:39.801Z,100019.00
2022-08-05T03:05:10.872Z,100027.00
2022-08-05T03:08:06.927Z,100046.00
2022-08-05T03:10:31.168Z,100042.00
2022-08-05T03:15:28.419Z,100053.00
2022-08-05T03:17:57.617Z,100061.00
2022-08-05T03:20:25.651Z,100058.00
2022-08-05T03:22:57.764Z,100077.00
2022-08-05T03:26:04.932Z,100085.00
2022-08-05T03:28:25.811Z,100089.00
2022-08-05T03:30:54.276Z,100087.00
2022-08-05T03:33:23.151Z,100096.00
2022-08-05T03:36:00.143Z,100112.00
2022-08-05T03:38:33.220Z,100134.00
2022-08-05T03:41:10.696Z,100159.00
2022-08-05T03:44:09.902Z,100147.00
2022-08-05T03:46:26.701Z,100131.00
2022-08-05T03:48:58.751Z,100139.00
2022-08-05T03:52:36.628Z,100131.00
2022-08-05T03:56:00.961Z,100118.00
2022-08-05T03:57:55.938Z,100102.00
2022-08-05T04:00:29.737Z,100097.00
2022-08-05T04:03:03.125Z,100098.00
2022-08-05T04:05:35.995Z,100092.00
2022-08-05T04:08:22.464Z,100100.00
2022-08-05T04:10:57.716Z,100122.00
2022-08-05T04:13:27.838Z,100115.00
2022-08-05T04:16:15.073Z,100063.00
2022-08-05T04:18:45.846Z,100074.00
2022-08-05T04:22:09.849Z,100052.00
2022-08-05T04:24:19.355Z,100037.00
2022-08-05T04:26:50.806Z,100037.00
2022-08-05T04:29:18.706Z,100050.00
2022-08-05T04:31:48.506Z,100046.00
2022-08-05T04:34:32.733Z,100032.00
2022-08-05T04:37:01.389Z,100002.00
2022-08-05T04:39:32.154Z,99968.00
2022-08-05T04:41:59.948Z,99960.00
2022-08-05T04:44:30.746Z,99949.00
2022-08-05T04:46:59.726Z,99921.00
2022-08-05T04:49:39.118Z,99912.00
2022-08-05T04:52:16.508Z,99891.00
2022-08-05T04:54:44.455Z,99899.00
2022-08-05T04:57:12.094Z,99903.00
2022-08-05T04:59:40.530Z,99900.00
2022-08-05T05:02:36.679Z,99896.00
2022-08-05T05:05:02.113Z,99909.00
2022-08-05T05:07:35.373Z,99902.00
2022-08-05T05:10:06.529Z,99905.00
2022-08-05T05:12:34.223Z,99918.00
2022-08-05T05:15:10.894Z,99933.00
2022-08-05T05:17:56.898Z,99934.00
2022-08-05T05:20:28.426Z,99952.00
2022-08-05T05:23:08.199Z,99964.00
2022-08-05T05:25:40.948Z,99957.00
2022-08-05T05:28:10.375Z,99973.00
2022-08-05T05:30:39.337Z,99977.00
2022-08-05T05:33:15.887Z,99982.00
2022-08-05T05:35:48.727Z,99980.00
2022-08-05T05:38:22.641Z,99989.00
2022-08-05T05:40:59.448Z,100000.00
2022-08-05T05:43:54.151Z,100013.00
2022-08-05T05:46:16.043Z,100027.00
2022-08-05T05:48:48.186Z,100029.00
2022-08-05T05:51:24.005Z,100041.00
2022-08-05T05:53:57.251Z,100046.00
2022-08-05T05:56:32.618Z,100047.00
2022-08-05T05:59:07.846Z,100074.00
2022-08-05T06:01:39.465Z,100076.00
2022-08-05T06:04:14.306Z,100087.00
2022-08-05T06:06:47.368Z,100083.00
2022-08-05T06:09:25.669Z,100090.00
2022-08-05T06:12:04.298Z,100080.00
2022-08-05T06:14:33.428Z,100085.00
2022-08-05T06:17:22.372Z,100093.00
2022-08-05T06:19:56.872Z,100099.00
2022-08-05T06:22:33.875Z,100100.00
2022-08-05T06:25:25.136Z,100103.00
2022-08-05T06:28:10.783Z,100101.00
2022-08-05T06:30:40.613Z,100095.00
2022-08-05T06:33:09.915Z,100089.00
2022-08-05T06:36:08.168Z,100088.00
2022-08-05T06:38:35.793Z,100088.00
2022-08-05T06:41:08.196Z,100083.00
2022-08-05T06:43:57.742Z,100081.00
2022-08-05T06:46:30.197Z,100089.00
2022-08-05T06:48:59.900Z,100084.00
2022-08-05T06:51:30.975Z,100088.00
2022-08-05T06:54:04.352Z,100088.00
2022-08-05T06:56:34.822Z,100086.00
2022-08-05T06:59:08.667Z,100102.00
2022-08-05T07:01:37.422Z,100107.00
2022-08-05T07:04:08.664Z,100110.00
2022-08-05T07:06:36.291Z,100110.00
2022-08-05T07:09:04.876Z,100116.00
2022-08-05T07:11:36.869Z,100121.00
2022-08-05T07:14:29.480Z,100112.00
2022-08-05T07:18:00.753Z,100101.00
2022-08-05T07:22:41.932Z,100102.00
2022-08-05T07:25:55.576Z,100096.00
2022-08-05T07:28:03.794Z,100090.00
2022-08-05T07:30:38.579Z,100100.00
2022-08-05T07:33:16.467Z,100093.00
2022-08-05T07:36:01.418Z,100097.00
2022-08-05T07:38:43.242Z,100087.00
2022-08-05T07:42:13.102Z,100076.00
2022-08-05T07:44:14.522Z,100082.00
2022-08-05T07:46:49.826Z,100075.00
2022-08-05T07:49:18.770Z,100066.00
2022-08-05T07:51:53.909Z,100065.00
2022-08-05T07:54:31.699Z,100057.00
2022-08-05T07:57:18.171Z,100056.00
2022-08-05T07:59:53.693Z,100049.00
2022-08-05T08:02:30.808Z,100041.00
2022-08-05T08:05:00.458Z,100032.00
2022-08-05T08:07:29.208Z,100042.00
2022-08-05T08:10:08.157Z,100043.00
2022-08-05T08:12:48.670Z,100041.00
2022-08-05T08:15:17.682Z,100047.00
2022-08-05T08:18:13.717Z,100040.00
2022-08-05T08:21:00.594Z,100048.00
2022-08-05T08:24:02.356Z,100060.00
2022-08-05T08:26:17.281Z,100056.00
2022-08-05T08:28:59.842Z,100056.00
2022-08-05T08:31:42.435Z,100057.00
2022-08-05T08:34:10.704Z,100049.00
2022-08-05T08:36:47.563Z,100042.00
2022-08-05T08:39:20.425Z,100039.00
2022-08-05T08:41:59.544Z,100028.00
2022-08-05T08:45:18.731Z,100028.00
2022-08-05T08:48:05.763Z,100039.00
2022-08-05T08:50:32.016Z,100047.00
2022-08-05T08:53:08.113Z,100065.00
2022-08-05T08:56:02.914Z,100064.00
2022-08-05T08:58:37.660Z,100074.00
2022-08-05T09:01:16.746Z,100067.00
2022-08-05T09:03:55.459Z,100069.00
2022-08-05T09:06:30.485Z,100069.00
2022-08-05T09:09:02.265Z,100066.00
2022-08-05T09:11:50.831Z,100070.00
2022-08-05T09:14:56.346Z,100079.00
2022-08-05T09:17:43.041Z,100090.00
2022-08-05T09:20:05.310Z,100084.00
2022-08-05T09:23:07.693Z,100098.00
2022-08-05T09:26:01.239Z,100107.00
2022-08-05T09:28:31.990Z,100107.00
2022-08-05T09:31:23.394Z,100105.00
2022-08-05T09:34:07.365Z,100105.00
2022-08-05T09:36:54.916Z,100102.00
2022-08-05T09:39:27.526Z,100106.00
2022-08-05T09:42:07.844Z,100098.00
2022-08-05T09:44:42.635Z,100103.00
2022-08-05T09:47:20.669Z,100107.00
2022-08-05T09:50:00.626Z,100115.00
2022-08-05T09:52:32.504Z,100119.00
2022-08-05T09:55:56.562Z,100120.00
2022-08-05T09:58:00.018Z,100110.00
2022-08-05T10:00:29.570Z,100099.00
2022-08-05T10:03:00.872Z,100099.00
2022-08-05T10:05:32.776Z,100101.00
2022-08-05T10:08:34.583Z,100106.00
2022-08-05T10:10:55.337Z,100111.00
2022-08-05T10:13:43.922Z,100124.00
2022-08-05T10:16:42.047Z,100122.00
2022-08-05T10:19:23.516Z,100129.00
2022-08-05T10:21:59.564Z,100121.00
2022-08-05T10:24:29.506Z,100129.00
2022-08-05T10:27:01.236Z,100125.00
2022-08-05T10:30:40.969Z,100117.00
2022-08-05T10:32:53.046Z,100127.00
2022-08-05T10:35:08.636Z,100134.00
2022-08-05T10:37:44.703Z,100130.00
2022-08-05T10:40:35.982Z,100126.00
2022-08-05T10:43:14.135Z,100103.00
2022-08-05T10:45:42.985Z,100108.00
2022-08-05T10:48:52.816Z,100124.00
2022-08-05T10:51:28.740Z,100123.00
2022-08-05T10:54:22.975Z,100129.00
2022-08-05T10:56:57.317Z,100143.00
2022-08-05T11:00:04.430Z,100152.00
2022-08-05T11:02:37.810Z,100150.00
2022-08-05T11:05:10.631Z,100138.00
2022-08-05T11:08:17.071Z,100128.00
2022-08-05T11:11:01.479Z,100113.00
2022-08-05T11:13:57.767Z,100121.00
2022-08-05T11:16:47.440Z,100134.00
2022-08-05T11:20:11.339Z,100136.00
2022-08-05T11:22:42.476Z,100150.00
2022-08-05T11:26:04.943Z,100151.00
2022-08-05T11:28:20.957Z,100153.00
2022-08-05T11:30:58.222Z,100143.00
2022-08-05T11:33:47.875Z,100151.00
2022-08-05T11:36:34.221Z,100152.00
2022-08-05T11:39:08.871Z,100164.00
2022-08-05T11:42:01.069Z,100170.00
2022-08-05T11:44:53.075Z,100169.00
2022-08-05T11:47:48.903Z,100179.00
2022-08-05T11:50:14.166Z,100167.00
2022-08-05T11:52:44.021Z,100177.00
2022-08-05T11:55:14.159Z,100190.00
2022-08-05T11:58:10.145Z,100189.00
2022-08-05T12:00:37.864Z,100198.00
2022-08-05T12:03:31.413Z,100210.00
2022-08-05T12:06:10.783Z,100210.00
2022-08-05T12:08:57.379Z,100205.00
2022-08-05T12:11:40.401Z,100198.00
2022-08-05T12:14:10.239Z,100206.00
2022-08-05T12:16:45.412Z,100196.00
2022-08-05T12:20:26.633Z,100211.00
2022-08-05T12:22:09.499Z,100210.00
2022-08-05T12:24:43.607Z,100221.00
2022-08-05T12:27:26.809Z,100239.00
2022-08-05T12:30:15.269Z,100223.00
2022-08-05T12:32:54.080Z,100241.00
2022-08-05T12:35:24.882Z,100253.00
2022-08-05T12:38:07.534Z,100260.00
2022-08-05T12:40:38.576Z,100259.00
2022-08-05T12:43:11.954Z,100272.00
2022-08-05T12:45:56.052Z,100276.00
2022-08-05T12:48:27.404Z,100296.00
2022-08-05T12:52:09.914Z,100292.00
2022-08-05T12:54:04.938Z,100301.00
2022-08-05T12:56:51.525Z,100320.00
2022-08-05T12:59:46.473Z,100314.00
2022-08-05T13:02:13.942Z,100321.00
2022-08-05T13:04:54.411Z,100320.00
2022-08-05T13:07:47.839Z,100332.00
2022-08-05T13:10:20.112Z,100337.00
2022-08-05T13:12:57.503Z,100332.00
2022-08-05T13:15:41.372Z,100340.00
2022-08-05T13:18:18.770Z,100338.00
2022-08-05T13:20:49.125Z,100343.00
2022-08-05T13:23:22.438Z,100342.00
2022-08-05T13:25:59.258Z,100355.00
2022-08-05T13:28:28.540Z,100349.00
2022-08-05T13:30:57.231Z,100364.00
2022-08-05T13:34:21.910Z,100367.00
2022-08-05T13:36:14.496Z,100362.00
2022-08-05T13:38:43.287Z,100377.00
2022-08-05T13:41:11.788Z,100376.00
2022-08-05T13:43:44.219Z,100369.00
2022-08-05T13:46:37.955Z,100380.00
2022-08-05T13:49:13.896Z,100393.00
2022-08-05T13:51:46.462Z,100380.00
2022-08-05T13:54:16.567Z,100394.00
2022-08-05T13:56:51.403Z,100388.00
2022-08-05T13:59:24.142Z,100396.00
2022-08-05T14:02:00.080Z,100405.00
2022-08-05T14:04:52.491Z,100406.00
2022-08-05T14:07:25.451Z,100425.00
2022-08-05T14:10:28.758Z,100427.00
2022-08-05T14:12:59.450Z,100423.00
2022-08-05T14:16:04.664Z,100421.00
2022-08-05T14:18:18.348Z,100420.00
2022-08-05T14:20:54.862Z,100422.00
2022-08-05T14:23:25.940Z,100418.00
2022-08-05T14:25:58.398Z,100415.00
2022-08-05T14:28:30.917Z,100421.00
2022-08-05T14:31:01.569Z,100418.00
2022-08-05T14:33:56.427Z,100415.00
2022-08-05T14:36:21.440Z,100418.00
2022-08-05T14:38:50.852Z,100421.00
2022-08-05T14:41:18.859Z,100431.00
2022-08-05T14:43:59.296Z,100419.00
2022-08-05T14:46:35.398Z,100429.00
2022-08-05T14:49:07.285Z,100434.00
2022-08-05T14:51:42.982Z,100431.00
2022-08-05T14:54:28.989Z,100438.00
2022-08-05T14:56:59.223Z,100445.00
2022-08-05T14:59:29.585Z,100446.00
2022-08-05T15:02:14.944Z,100449.00
2022-08-05T15:04:44.959Z,100450.00
2022-08-05T15:08:07.707Z,100452.00
2022-08-05T15:10:04.043Z,100457.00
2022-08-05T15:12:51.600Z,100460.00
2022-08-05T15:15:55.881Z,100467.00
2022-08-05T15:18:08.069Z,100473.00
2022-08-05T15:20:36.327Z,100467.00
2022-08-05T15:23:12.199Z,100462.00
2022-08-05T15:25:52.633Z,100473.00
2022-08-05T15:28:24.448Z,100475.00
2022-08-05T15:30:56.360Z,100476.00
2022-08-05T15:34:05.941Z,100479.00
2022-08-05T15:36:17.447Z,100491.00
2022-08-05T15:40:41.055Z,100479.00
2022-08-05T15:41:57.267Z,100485.00
2022-08-05T15:44:28.107Z,100492.00
2022-08-05T15:46:59.502Z,100498.00
2022-08-05T15:49:43.266Z,100490.00
2022-08-05T15:52:16.642Z,100487.00
2022-08-05T15:54:57.452Z,100488.00
2022-08-05T15:57:27.819Z,100495.00
2022-08-05T16:00:07.823Z,100500.00
2022-08-05T16:02:35.928Z,100503.00
2022-08-05T16:05:09.578Z,100504.00
2022-08-05T16:07:38.809Z,100506.00
2022-08-05T16:10:14.464Z,100505.00
2022-08-05T16:12:42.212Z,100512.00
2022-08-05T16:15:10.842Z,100513.00
2022-08-05T16:17:49.722Z,100509.00
2022-08-05T16:20:27.940Z,100510.00
2022-08-05T16:22:55.889Z,100511.00
2022-08-05T16:25:33.788Z,100517.00
2022-08-05T16:28:10.262Z,100517.00
2022-08-05T16:30:38.364Z,100519.00
2022-08-05T16:33:06.582Z,100514.00
2022-08-05T16:35:41.957Z,100512.00
2022-08-05T16:38:24.346Z,100516.00
2022-08-05T16:41:01.480Z,100518.00
2022-08-05T16:43:34.201Z,100514.00
2022-08-05T16:46:23.467Z,100514.00
2022-08-05T16:48:52.805Z,100522.00
2022-08-05T16:51:20.723Z,100514.00
2022-08-05T16:54:05.243Z,100526.00
2022-08-05T16:56:37.388Z,100523.00
2022-08-05T16:59:10.377Z,100522.00
2022-08-05T17:01:53.016Z,100521.00
2022-08-05T17:04:26.403Z,100527.00
2022-08-05T17:06:57.046Z,100525.00
2022-08-05T17:09:30.666Z,100532.00
2022-08-05T17:12:07.047Z,100536.00
2022-08-05T17:14:38.087Z,100531.00
2022-08-05T17:17:09.413Z,100542.00
2022-08-05T17:19:45.499Z,100545.00
2022-08-05T17:22:24.398Z,100540.00
2022-08-05T17:24:57.781Z,100545.00
2022-08-05T17:27:33.774Z,100540.00
2022-08-05T17:30:07.129Z,100540.00
2022-08-05T17:32:47.152Z,100538.00
2022-08-05T17:35:20.940Z,100547.00
2022-08-05T17:37:49.511Z,100544.00
2022-08-05T17:40:22.486Z,100550.00
2022-08-05T17:42:53.244Z,100546.00
2022-08-05T17:45:29.495Z,100556.00
2022-08-05T17:48:08.180Z,100557.00
2022-08-05T17:50:36.015Z,100551.00
2022-08-05T17:53:08.326Z,100552.00
2022-08-05T17:55:39.653Z,100554.00
2022-08-05T17:58:12.257Z,100560.00
2022-08-05T18:00:50.588Z,100560.00
2022-08-05T18:03:55.936Z,100564.00
2022-08-05T18:06:11.464Z,100560.00
2022-08-05T18:08:44.566Z,100571.00
2022-08-05T18:11:24.149Z,100572.00
2022-08-05T18:14:03.372Z,100571.00
2022-08-05T18:16:32.545Z,100577.00
2022-08-05T18:19:00.284Z,100581.00
2022-08-05T18:22:07.396Z,100589.00
2022-08-05T18:24:15.676Z,100588.00
2022-08-05T18:26:43.808Z,100590.00
2022-08-05T18:29:11.497Z,100588.00
2022-08-05T18:31:43.174Z,100600.00
2022-08-05T18:34:12.197Z,100597.00
2022-08-05T18:36:41.321Z,100603.00
2022-08-05T18:39:42.083Z,100604.00
2022-08-05T18:42:07.650Z,100602.00
2022-08-05T18:44:51.389Z,100610.00
2022-08-05T18:47:26.543Z,100620.00
2022-08-05T18:50:15.716Z,100622.00
2022-08-05T18:52:51.184Z,100617.00
2022-08-05T18:55:21.555Z,100620.00
2022-08-05T18:57:53.970Z,100617.00
2022-08-05T19:00:29.110Z,100623.00
2022-08-05T19:03:04.171Z,100619.00
2022-08-05T19:06:12.092Z,100630.00
2022-08-05T19:08:30.975Z,100634.00
2022-08-05T19:11:04.608Z,100634.00
2022-08-05T19:13:35.605Z,100647.00
2022-08-05T19:16:25.045Z,100645.00
2022-08-05T19:18:53.743Z,100646.00
2022-08-05T19:21:25.260Z,100651.00
2022-08-05T19:24:06.996Z,100659.00
2022-08-05T19:26:54.323Z,100662.00
2022-08-05T19:29:26.775Z,100677.00
2022-08-05T19:32:11.234Z,100676.00
2022-08-05T19:34:39.761Z,100685.00
2022-08-05T19:37:08.156Z,100690.00
2022-08-05T19:39:45.714Z,100700.00
2022-08-05T19:42:36.110Z,100704.00
2022-08-05T19:45:06.019Z,100705.00
2022-08-05T19:47:37.559Z,100711.00
2022-08-05T19:50:07.751Z,100715.00
2022-08-05T19:52:38.386Z,100718.00
2022-08-05T19:56:11.483Z,100724.00
2022-08-05T19:58:19.532Z,100721.00
2022-08-05T20:00:42.358Z,100721.00
2022-08-05T20:03:11.148Z,100734.00
2022-08-05T20:05:43.553Z,100742.00
2022-08-05T20:08:20.090Z,100738.00
2022-08-05T20:10:49.350Z,100741.00
2022-08-05T20:13:18.358Z,100752.00
2022-08-05T20:15:58.111Z,100755.00
2022-08-05T20:18:33.846Z,100762.00
2022-08-05T20:21:06.697Z,100770.00
2022-08-05T20:23:50.828Z,100767.00
2022-08-05T20:26:23.327Z,100766.00
2022-08-05T20:28:56.813Z,100773.00
2022-08-05T20:31:36.971Z,100781.00
2022-08-05T20:34:12.343Z,100777.00
2022-08-05T20:36:43.515Z,100777.00
2022-08-05T20:39:16.286Z,100791.00
2022-08-05T20:41:47.896Z,100799.00
2022-08-05T20:44:29.532Z,100801.00
2022-08-05T20:47:04.166Z,100803.00
2022-08-05T20:49:37.756Z,100804.00
2022-08-05T20:52:08.558Z,100809.00
2022-08-05T20:54:59.781Z,100810.00
2022-08-05T20:57:42.003Z,100820.00
2022-08-05T21:00:20.915Z,100819.00
2022-08-05T21:03:07.321Z,100819.00
2022-08-05T21:05:54.337Z,100823.00
2022-08-05T21:08:26.841Z,100826.00
2022-08-05T21:11:01.063Z,100834.00
2022-08-05T21:13:48.098Z,100835.00
2022-08-05T21:16:29.963Z,100835.00
2022-08-05T21:19:01.213Z,100830.00
2022-08-05T21:21:39.352Z,100830.00
2022-08-05T21:24:12.837Z,100834.00
2022-08-05T21:26:41.636Z,100834.00
2022-08-05T21:29:12.593Z,100847.00
2022-08-05T21:31:45.013Z,100854.00
2022-08-05T21:34:12.771Z,100848.00
2022-08-05T21:36:42.329Z,100850.00
2022-08-05T21:39:14.347Z,100856.00
2022-08-05T21:41:52.445Z,100857.00
2022-08-05T21:44:26.987Z,100859.00
2022-08-05T21:46:57.933Z,100863.00
2022-08-05T21:49:58.545Z,100873.00
2022-08-05T21:52:16.619Z,100866.00
2022-08-05T21:54:57.599Z,100865.00
2022-08-05T21:57:35.083Z,100864.00
2022-08-05T22:00:11.714Z,100869.00
2022-08-05T22:02:43.905Z,100876.00
2022-08-05T22:05:13.830Z,100883.00
2022-08-05T22:07:58.839Z,100879.00
2022-08-05T22:10:27.689Z,100891.00
2022-08-05T22:13:09.146Z,100884.00
2022-08-05T22:16:00.570Z,100885.00
2022-08-05T22:18:35.254Z,100887.00
2022-08-05T22:21:04.707Z,100884.00
2022-08-05T22:24:12.783Z,100889.00
2022-08-05T22:26:59.946Z,100892.00
2022-08-05T22:29:30.755Z,100900.00
2022-08-05T22:32:02.741Z,100898.00
2022-08-05T22:34:32.988Z,100896.00
2022-08-05T22:37:03.978Z,100895.00
2022-08-05T22:39:34.914Z,100909.00
2022-08-05T22:42:10.231Z,100901.00
2022-08-05T22:44:48.594Z,100899.00
2022-08-05T22:47:30.055Z,100899.00
2022-08-05T22:50:23.011Z,100909.00
2022-08-05T22:52:51.277Z,100911.00
2022-08-05T22:55:21.837Z,100915.00
2022-08-05T22:57:52.077Z,100916.00
2022-08-05T23:00:22.413Z,100918.00
2022-08-05T23:02:52.549Z,100922.00
2022-08-05T23:05:22.247Z,100927.00
2022-08-05T23:07:51.839Z,100924.00
2022-08-05T23:10:23.611Z,100929.00
2022-08-05T23:12:54.385Z,100928.00
2022-08-05T23:15:29.063Z,100925.00
2022-08-05T23:18:03.345Z,100921.00
2022-08-05T23:20:37.194Z,100931.00
2022-08-05T23:23:08.643Z,100928.00
2022-08-05T23:25:54.740Z,100923.00
2022-08-05T23:28:28.676Z,100930.00
2022-08-05T23:31:15.678Z,100936.00
2022-08-05T23:34:03.931Z,100938.00
2022-08-05T23:36:40.189Z,100939.00
2022-08-05T23:39:17.500Z,100941.00
2022-08-05T23:42:00.532Z,100942.00
2022-08-05T23:44:31.415Z,100940.00
2022-08-05T23:47:02.424Z,100946.00
2022-08-05T23:49:45.675Z,100946.00
2022-08-05T23:52:32.413Z,100956.00
2022-08-05T23:55:10.218Z,100960.00
2022-08-05T23:57:38.433Z,100962.00
